Time;durP1;ratioP1;P1;durP2;ratioP2;P2;SDS_P1;SDS_P2;PMS_P1;PMS_P2;Temp;Humidity;BMP_temperature;BMP_pressure;BME280_temperature;BME280_humidity;BME280_pressure;Samples;Min_cycle;Max_cycle;Signal;HPM_P1;HPM_P2
2021/12/11 00:03:14;;;;;;;2.20;2.00;;;;;;;2.27;93.78;98096.28;2302357;67;22086;-74
2021/12/11 00:06:21;;;;;;;2.05;1.76;;;;;;;2.26;94.00;98099.69;2304604;69;20328;-74
2021/12/11 00:09:29;;;;;;;1.74;1.64;;;;;;;2.27;94.08;98111.66;2304028;69;20302;-74
2021/12/11 00:12:36;;;;;;;1.80;1.70;;;;;;;2.31;94.13;98109.97;2304297;69;20349;-74
2021/12/11 00:15:42;;;;;;;1.81;1.71;;;;;;;2.31;94.04;98120.22;2302242;67;22853;-74
2021/12/11 00:18:51;;;;;;;1.65;1.55;;;;;;;2.34;94.00;98130.50;2304680;69;20665;-74
2021/12/11 00:22:01;;;;;;;1.58;1.48;;;;;;;2.31;93.80;98139.00;2305778;69;20959;-75
2021/12/11 00:25:09;;;;;;;1.66;1.56;;;;;;;2.27;93.86;98147.50;2304298;69;20688;-75
2021/12/11 00:28:12;;;;;;;1.99;1.85;;;;;;;2.28;94.16;98156.91;2304574;69;20380;-75
2021/12/11 00:31:16;;;;;;;1.50;1.40;;;;;;;2.31;94.30;98164.59;2303246;67;21136;-75
2021/12/11 00:34:20;;;;;;;1.77;1.50;;;;;;;2.33;94.33;98168.03;2297309;69;20363;-75
2021/12/11 00:37:26;;;;;;;1.36;1.26;;;;;;;2.33;94.15;98177.41;2303001;69;20291;-75
2021/12/11 00:40:29;;;;;;;1.46;1.36;;;;;;;2.37;94.31;98186.88;2303158;69;20362;-75
2021/12/11 00:43:35;;;;;;;1.42;1.33;;;;;;;2.39;94.21;98200.53;2303842;69;20877;-75
2021/12/11 00:46:37;;;;;;;1.52;1.42;;;;;;;2.39;94.08;98203.97;2302757;66;50353;-74
2021/12/11 00:49:50;;;;;;;1.60;1.50;;;;;;;2.41;94.07;98209.09;2305218;69;20970;-74
2021/12/11 00:52:57;;;;;;;1.52;1.42;;;;;;;2.40;93.92;98223.63;2288749;69;20425;-74
2021/12/11 00:56:10;;;;;;;1.45;1.35;;;;;;;2.40;93.87;98233.84;2304492;69;20338;-74
2021/12/11 00:59:16;;;;;;;1.46;1.41;;;;;;;2.38;93.82;98237.25;2302693;69;20366;-74
2021/12/11 01:03:50;;;;;;;1.35;1.25;;;;;;;2.37;93.58;98245.69;2067836;77;20235;-73
2021/12/11 01:07:04;;;;;;;1.60;1.50;;;;;;;2.36;93.56;98250.22;2063752;78;20323;-73
2021/12/11 01:10:23;;;;;;;1.46;1.36;;;;;;;2.36;93.40;98254.03;2063685;78;20376;-73
2021/12/11 01:13:30;;;;;;;1.88;1.58;;;;;;;2.35;93.49;98257.72;2063681;78;20352;-73
2021/12/11 01:16:33;;;;;;;1.56;1.46;;;;;;;2.34;93.47;98263.25;2054441;76;21819;-73
2021/12/11 01:19:40;;;;;;;1.36;1.31;;;;;;;2.34;93.44;98270.41;2047980;79;20318;-73
2021/12/11 01:22:43;;;;;;;1.51;1.41;;;;;;;2.33;93.38;98276.28;2047864;79;20771;-73
2021/12/11 01:25:46;;;;;;;1.79;1.67;;;;;;;2.32;93.37;98281.72;2047376;79;20395;-73
2021/12/11 01:28:50;;;;;;;2.26;1.27;;;;;;;2.32;93.49;98287.28;2047614;79;20307;-73
2021/12/11 01:31:56;;;;;;;1.67;1.58;;;;;;;2.31;93.39;98294.47;2034600;78;1244890;-73
2021/12/11 01:35:06;;;;;;;1.41;1.40;;;;;;;2.30;93.57;98302.94;2052670;78;20199;-73
2021/12/11 01:38:19;;;;;;;1.39;1.31;;;;;;;2.29;93.49;98311.63;2052932;78;20362;-73
2021/12/11 01:41:22;;;;;;;1.66;1.56;;;;;;;2.29;93.52;98320.34;2053566;78;20351;-73
2021/12/11 01:44:29;;;;;;;1.98;1.50;;;;;;;2.29;93.45;98330.25;2052482;78;20947;-73
2021/12/11 01:47:35;;;;;;;1.65;1.55;;;;;;;2.28;93.26;98340.34;2046685;76;22484;-73
2021/12/11 01:50:43;;;;;;;1.59;1.49;;;;;;;2.27;93.06;98351.31;2043559;79;20871;-73
2021/12/11 01:53:53;;;;;;;1.77;1.67;;;;;;;2.26;93.22;98360.22;2047137;79;20371;-74
2021/12/11 01:57:22;;;;;;;1.88;1.77;;;;;;;2.26;93.36;98369.66;2048117;79;20315;-74
2021/12/11 02:05:21;;;;;;;2.04;1.94;;;;;;;2.24;93.43;98383.19;2016874;69;20366;-74
2021/12/11 02:12:44;;;;;;;1.74;1.64;;;;;;;2.24;93.58;98396.16;2007446;80;20316;-76
2021/12/11 02:15:51;;;;;;;1.84;1.74;;;;;;;2.24;93.42;98403.63;2000543;80;20328;-76
2021/12/11 02:18:59;;;;;;;2.11;2.01;;;;;;;2.23;93.72;98410.50;2001916;78;22920;-76
2021/12/11 02:22:01;;;;;;;1.84;1.74;;;;;;;2.23;93.83;98417.38;2002905;81;20324;-76
2021/12/11 02:25:09;;;;;;;1.91;1.81;;;;;;;2.23;93.76;98424.91;2002387;81;21220;-76
2021/12/11 02:28:31;;;;;;;1.95;1.85;;;;;;;2.23;93.88;98432.38;2001971;81;20336;-76
2021/12/11 02:32:05;;;;;;;1.88;1.77;;;;;;;2.24;93.81;98438.72;1999794;78;30170;-76
2021/12/11 02:35:17;;;;;;;1.70;1.60;;;;;;;2.24;93.93;98445.81;2001191;81;20329;-76
2021/12/11 02:38:45;;;;;;;2.10;2.00;;;;;;;2.25;93.90;98451.28;2002747;81;20410;-76
2021/12/11 02:41:54;;;;;;;1.91;1.81;;;;;;;2.25;93.92;98458.38;2001744;81;20850;-76
2021/12/11 02:45:30;;;;;;;2.17;2.08;;;;;;;2.26;93.88;98466.19;2000951;81;20396;-76
2021/12/11 02:48:41;;;;;;;2.04;1.94;;;;;;;2.27;93.73;98471.53;2003058;81;20236;-76
2021/12/11 02:51:59;;;;;;;2.44;2.34;;;;;;;2.26;93.58;98476.78;2001599;81;20818;-76
2021/12/11 02:55:14;;;;;;;2.51;2.41;;;;;;;2.26;93.65;98481.97;2002597;81;20425;-76
2021/12/11 02:58:25;;;;;;;2.19;2.09;;;;;;;2.26;93.76;98487.84;2002062;81;20364;-76
2021/12/11 03:01:51;;;;;;;2.58;2.47;;;;;;;2.26;93.60;98492.47;2001727;80;20328;-76
2021/12/11 03:05:08;;;;;;;2.30;2.20;;;;;;;2.26;93.61;98496.59;2003747;81;20320;-76
2021/12/11 03:08:17;;;;;;;2.70;2.50;;;;;;;2.27;93.58;98500.00;2003336;81;20366;-76
2021/12/11 03:11:24;;;;;;;2.05;1.90;;;;;;;2.27;93.39;98504.44;2003847;81;20381;-76
2021/12/11 03:14:28;;;;;;;2.63;2.53;;;;;;;2.27;93.51;98508.59;2004056;81;20382;-76
2021/12/11 03:17:30;;;;;;;2.64;2.51;;;;;;;2.27;93.47;98515.44;2001646;78;47305;-76
2021/12/11 03:20:36;;;;;;;2.69;2.49;;;;;;;2.27;93.32;98521.09;2003321;81;20372;-76
2021/12/11 03:23:41;;;;;;;2.56;2.38;;;;;;;2.27;93.45;98526.00;2003505;80;20729;-76
2021/12/11 03:26:54;;;;;;;2.61;2.38;;;;;;;2.28;93.52;98534.28;2002986;81;20348;-76
2021/12/11 03:29:58;;;;;;;3.06;2.86;;;;;;;2.30;93.54;98540.97;2001967;81;20485;-76
2021/12/11 03:33:05;;;;;;;2.35;2.22;;;;;;;2.30;93.61;98548.03;2007863;77;20618;-76
2021/12/11 03:36:13;;;;;;;2.49;2.29;;;;;;;2.31;93.59;98554.31;2008971;80;20339;-76
2021/12/11 03:39:37;;;;;;;2.53;2.34;;;;;;;2.31;93.67;98560.84;2008203;80;20315;-76
2021/12/11 03:42:41;;;;;;;2.30;2.15;;;;;;;2.31;93.54;98568.31;2008756;80;20327;-76
2021/12/11 03:45:52;;;;;;;2.13;2.00;;;;;;;2.31;93.64;98575.09;2005788;78;20777;-76
2021/12/11 03:49:15;;;;;;;2.22;2.13;;;;;;;2.32;93.77;98582.47;2002969;81;20333;-76
2021/12/11 03:52:18;;;;;;;2.59;2.40;;;;;;;2.32;93.66;98590.09;2003233;81;20417;-76
2021/12/11 03:55:28;;;;;;;3.19;2.67;;;;;;;2.33;93.85;98594.31;2003639;81;20209;-76
2021/12/11 03:59:22;;;;;;;2.58;2.38;;;;;;;2.33;93.80;98599.66;2002678;81;20486;-76
2021/12/11 04:03:07;;;;;;;2.56;2.46;;;;;;;2.34;93.91;98604.56;1990929;80;1006557;-76
2021/12/11 04:07:18;;;;;;;2.53;2.40;;;;;;;2.34;93.68;98610.38;2002918;81;20225;-76
2021/12/11 04:15:18;;;;;;;3.30;2.20;;;;;;;2.35;93.73;98625.16;2005133;70;130094;-74
2021/12/11 04:18:27;;;;;;;2.49;2.36;;;;;;;2.35;93.70;98633.44;2007808;80;20331;-74
2021/12/11 04:21:30;;;;;;;;;;;;;;;2.35;93.78;98639.59;2007917;80;20365;-74
2021/12/11 04:28:49;;;;;;;2.20;2.10;;;;;;;2.35;93.49;98652.44;2003044;70;20969;-74
2021/12/11 04:36:15;;;;;;;2.85;2.31;;;;;;;2.35;93.57;98666.94;2003206;70;21385;-74
2021/12/11 04:39:21;;;;;;;2.96;2.56;;;;;;;2.34;93.40;98673.56;2004758;80;20406;-74
2021/12/11 04:42:53;;;;;;;2.90;2.70;;;;;;;2.33;93.49;98680.63;2001729;81;20344;-74
2021/12/11 04:50:53;;;;;;;3.14;2.89;;;;;;;2.34;93.47;98696.94;1982315;71;20360;-75
2021/12/11 04:54:43;;;;;;;3.16;2.96;;;;;;;2.34;93.36;98706.66;1972804;82;20765;-74
2021/12/11 04:58:05;;;;;;;3.38;3.17;;;;;;;2.34;93.27;98715.41;1976979;82;20352;-74
2021/12/11 05:09:03;;;;;;;3.81;3.46;;;;;;;2.35;93.16;98735.00;1976907;82;20446;-74
2021/12/11 05:15:33;;;;;;;3.64;3.42;;;;;;;2.35;92.79;98745.72;1964165;82;964678;-75
2021/12/11 05:18:39;;;;;;;3.60;3.40;;;;;;;2.35;92.87;98750.47;1971989;82;20338;-74
2021/12/11 05:21:49;;;;;;;3.95;3.69;;;;;;;2.34;92.91;98755.47;1971347;82;20815;-75
2021/12/11 05:25:20;;;;;;;4.21;3.91;;;;;;;2.33;93.04;98761.84;1971861;82;20335;-75
2021/12/11 05:28:40;;;;;;;4.91;4.53;;;;;;;2.32;93.12;98768.63;1972177;82;20403;-75
2021/12/11 05:32:04;;;;;;;4.38;4.07;;;;;;;2.31;93.36;98776.19;1970891;82;20347;-74
2021/12/11 05:35:13;;;;;;;4.14;3.84;;;;;;;2.30;93.51;98782.88;1970242;82;20373;-77
2021/12/11 05:38:19;;;;;;;4.65;4.25;;;;;;;2.30;93.34;98789.25;1972027;82;20335;-77
2021/12/11 05:41:24;;;;;;;4.81;4.28;;;;;;;2.29;93.38;98793.56;1974541;82;20469;-75
2021/12/11 05:44:28;;;;;;;3.80;3.55;;;;;;;2.27;93.03;98798.91;1972113;82;20893;-75
2021/12/11 05:47:31;;;;;;;4.20;3.85;;;;;;;2.22;92.69;98804.56;1971776;82;20374;-75
2021/12/11 05:51:07;;;;;;;3.92;3.63;;;;;;;2.16;92.45;98809.72;1972083;82;20422;-75
2021/12/11 05:54:26;;;;;;;4.34;4.04;;;;;;;2.09;92.37;98816.63;1971357;82;21345;-75
2021/12/11 05:57:55;;;;;;;4.46;4.07;;;;;;;2.02;92.31;98824.38;1972697;82;20460;-75
2021/12/11 06:01:07;;;;;;;4.53;4.13;;;;;;;1.93;92.35;98832.38;1971114;82;20343;-75
2021/12/11 06:04:15;;;;;;;4.46;4.06;;;;;;;1.85;92.69;98837.81;1971222;82;20478;-75
2021/12/11 06:07:23;;;;;;;4.29;3.99;;;;;;;1.77;92.86;98845.28;1972976;82;20229;-74
2021/12/11 06:10:30;;;;;;;4.68;4.25;;;;;;;1.71;93.19;98851.47;1972135;82;20385;-74
2021/12/11 06:13:36;;;;;;;4.91;4.51;;;;;;;1.65;93.28;98859.78;1972409;82;20935;-74
2021/12/11 06:17:42;;;;;;;4.56;4.11;;;;;;;1.59;93.51;98867.47;1973741;82;21966;-75
2021/12/11 06:20:59;;;;;;;4.22;3.90;;;;;;;1.54;93.61;98875.31;1976261;82;20371;-75
2021/12/11 06:24:12;;;;;;;5.46;4.49;;;;;;;1.49;93.96;98883.47;1977246;82;20480;-75
2021/12/11 06:27:18;;;;;;;4.85;4.44;;;;;;;1.47;94.46;98891.13;1977597;82;20322;-75
2021/12/11 06:30:58;;;;;;;4.93;4.53;;;;;;;1.45;94.50;98899.78;1973830;82;20350;-74
2021/12/11 06:34:46;;;;;;;4.70;4.30;;;;;;;1.44;94.69;98909.88;1955336;82;20409;-75
2021/12/11 06:38:23;;;;;;;5.36;4.89;;;;;;;1.43;94.84;98921.63;1961334;82;20495;-75
2021/12/11 06:41:56;;;;;;;4.50;4.10;;;;;;;1.44;95.15;98929.13;1961790;82;20315;-75
2021/12/11 06:45:20;;;;;;;4.24;3.92;;;;;;;1.44;95.13;98936.09;1957786;82;20358;-75
2021/12/11 06:48:37;;;;;;;4.70;4.30;;;;;;;1.44;95.12;98941.97;1964110;82;20206;-75
2021/12/11 06:51:45;;;;;;;4.51;4.16;;;;;;;1.44;94.96;98949.31;1965797;82;20344;-75
2021/12/11 06:54:50;;;;;;;4.55;4.18;;;;;;;1.43;94.95;98956.34;1966174;82;20424;-75
2021/12/11 06:57:55;;;;;;;4.84;4.38;;;;;;;1.42;95.07;98961.41;1966197;82;20892;-75
2021/12/11 07:01:04;;;;;;;4.22;3.92;;;;;;;1.41;95.11;98967.72;1951634;82;997073;-75
2021/12/11 07:04:23;;;;;;;5.25;4.30;;;;;;;1.41;95.11;98973.72;1959831;82;20667;-75
2021/12/11 07:07:32;;;;;;;4.34;3.99;;;;;;;1.40;95.03;98979.09;1949977;82;20346;-76
2021/12/11 07:10:50;;;;;;;3.80;3.50;;;;;;;1.37;94.73;98986.06;1962677;82;20455;-76
2021/12/11 07:13:53;;;;;;;4.06;3.76;;;;;;;1.34;94.75;98989.25;1962264;82;20462;-75
2021/12/11 07:17:04;;;;;;;4.07;3.78;;;;;;;1.30;94.66;98996.78;1967386;82;20423;-77
2021/12/11 07:20:21;;;;;;;4.18;3.79;;;;;;;1.27;94.78;99002.44;1968607;82;20409;-76
2021/12/11 07:23:26;;;;;;;4.22;3.92;;;;;;;1.24;94.85;99008.88;1970307;82;20353;-76
2021/12/11 07:26:38;;;;;;;5.03;4.63;;;;;;;1.21;94.99;99016.38;1967189;82;20328;-75
2021/12/11 07:29:43;;;;;;;4.38;4.01;;;;;;;1.19;95.02;99024.22;1968356;82;20855;-76
2021/12/11 07:39:44;;;;;;;3.84;3.54;;;;;;;1.21;95.71;99048.13;2037789;71;20373;-76
2021/12/11 07:50:09;;;;;;;4.65;4.25;;;;;;;1.27;95.98;99068.28;2046502;71;20653;-77
2021/12/11 08:02:44;;;;;;;4.96;4.46;;;;;;;1.38;96.38;99089.72;1974410;82;20871;-77
2021/12/11 08:06:09;;;;;;;5.06;4.36;;;;;;;1.43;96.49;99097.41;1976713;82;20394;-77
2021/12/11 08:09:38;;;;;;;5.41;4.91;;;;;;;1.48;96.58;99105.91;1977032;82;20479;-77
2021/12/11 08:12:42;;;;;;;6.05;5.54;;;;;;;1.54;96.68;99113.94;1972826;82;20357;-76
2021/12/11 08:15:49;;;;;;;5.70;5.20;;;;;;;1.59;96.59;99121.09;2022847;71;221714;-75
2021/12/11 08:18:54;;;;;;;5.96;5.36;;;;;;;1.64;96.57;99126.91;1975483;82;20530;-76
2021/12/11 08:22:06;;;;;;;5.80;5.20;;;;;;;1.70;96.49;99132.84;1975503;82;20354;-75
2021/12/11 08:25:11;;;;;;;5.47;4.97;;;;;;;1.74;96.38;99137.84;1974876;82;20424;-76
2021/12/11 08:28:21;;;;;;;5.71;5.22;;;;;;;1.77;96.32;99144.66;1976695;82;20546;-76
2021/12/11 08:31:25;;;;;;;5.44;4.96;;;;;;;1.81;96.23;99153.22;1977376;81;20850;-76
2021/12/11 08:35:22;;;;;;;5.44;4.96;;;;;;;1.83;96.15;99160.91;1980576;81;20205;-76
2021/12/11 08:42:44;;;;;;;5.53;5.06;;;;;;;1.89;96.20;99175.97;1993527;71;20382;-76
2021/12/11 08:46:03;;;;;;;5.46;4.91;;;;;;;1.92;96.01;99185.66;1972701;79;212045;-76
2021/12/11 09:02:37;;;;;;;6.06;5.46;;;;;;;2.06;96.26;99220.31;1415232;71;51050377;-75
2021/12/11 09:06:21;;;;;;;6.00;5.28;;;;;;;2.11;96.23;99228.06;1971333;82;20238;-76
2021/12/11 09:10:24;;;;;;;5.60;4.91;;;;;;;2.16;96.10;99235.16;1973120;82;20471;-76
2021/12/11 09:13:41;;;;;;;6.20;5.60;;;;;;;2.21;95.95;99244.78;1974444;82;21274;-75
2021/12/11 09:35:36;;;;;;;6.14;5.53;;;;;;;2.41;95.25;99285.81;1976397;82;20867;-76
2021/12/11 09:39:43;;;;;;;6.49;5.04;;;;;;;2.46;95.22;99291.97;1977681;82;20349;-76
2021/12/11 09:43:04;;;;;;;6.90;5.61;;;;;;;2.50;94.69;99296.19;1977541;82;20365;-75
2021/12/11 09:56:07;;;;;;;6.84;6.07;;;;;;;2.65;94.29;99315.13;1974812;82;20203;-76
2021/12/11 09:59:57;;;;;;;6.99;6.39;;;;;;;2.70;94.23;99321.72;1974771;82;20457;-76
2021/12/11 10:04:10;;;;;;;6.88;6.18;;;;;;;2.76;94.29;99324.63;1967802;82;20356;-76
2021/12/11 10:07:49;;;;;;;6.59;5.97;;;;;;;2.82;94.07;99323.53;1966573;82;20639;-75
2021/12/11 10:11:35;;;;;;;6.79;6.09;;;;;;;2.87;94.09;99324.31;1967281;82;20898;-75
2021/12/11 10:15:16;;;;;;;7.09;6.29;;;;;;;2.89;93.35;99328.41;1967168;82;20479;-76
2021/12/11 10:18:30;;;;;;;7.31;5.71;;;;;;;2.92;93.55;99332.69;1972681;82;20517;-76
2021/12/11 10:22:04;;;;;;;6.70;6.03;;;;;;;2.95;93.51;99337.19;1971978;82;20391;-76
2021/12/11 10:25:15;;;;;;;6.85;6.10;;;;;;;2.99;93.28;99346.03;1971784;82;20434;-76
2021/12/11 10:28:58;;;;;;;6.18;5.57;;;;;;;3.02;93.42;99347.94;1971178;82;20529;-75
2021/12/11 10:32:07;;;;;;;7.85;6.38;;;;;;;3.06;92.78;99351.84;1960708;82;974526;-76
2021/12/11 10:35:18;;;;;;;6.86;6.18;;;;;;;3.09;92.82;99357.53;1968982;82;20308;-76
2021/12/11 10:38:25;;;;;;;6.53;5.89;;;;;;;3.13;92.57;99363.56;1972647;82;20181;-76
2021/12/11 10:41:45;;;;;;;6.70;6.10;;;;;;;3.16;92.47;99370.16;1971482;82;20351;-76
2021/12/11 10:45:23;;;;;;;6.38;5.78;;;;;;;3.19;92.36;99374.91;1970380;82;20347;-76
2021/12/11 10:49:47;;;;;;;5.80;5.23;;;;;;;3.21;91.94;99379.88;1970635;82;20342;-76
2021/12/11 10:53:16;;;;;;;5.63;5.13;;;;;;;3.23;92.07;99385.88;1969922;82;20223;-75
2021/12/11 10:56:30;;;;;;;6.31;5.71;;;;;;;3.25;91.71;99389.03;1971143;82;20349;-75
2021/12/11 11:00:38;;;;;;;5.95;5.35;;;;;;;3.26;91.71;99390.97;1961161;82;20428;-76
2021/12/11 11:08:49;;;;;;;6.11;5.45;;;;;;;3.30;91.83;99397.59;1975150;82;20330;-76
2021/12/11 11:12:24;;;;;;;5.85;5.24;;;;;;;3.33;92.18;99404.19;1966186;82;20439;-76
2021/12/11 11:15:32;;;;;;;6.36;5.76;;;;;;;3.35;91.78;99409.34;1969647;82;21533;-76
2021/12/11 11:19:30;;;;;;;6.72;5.96;;;;;;;3.37;91.86;99414.69;1960479;82;20377;-76
2021/12/11 11:23:18;;;;;;;6.03;4.96;;;;;;;3.39;92.02;99416.88;1959921;82;20378;-76
2021/12/11 11:27:04;;;;;;;5.69;5.07;;;;;;;3.41;91.90;99416.84;1972612;82;20429;-76
2021/12/11 11:31:16;;;;;;;;;;;;;;;3.45;91.89;99419.25;1711102;82;52387290;-76
2021/12/11 11:34:42;;;;;;;5.61;5.11;;;;;;;3.48;91.80;99419.50;1972829;82;20825;-76
2021/12/11 11:38:44;;;;;;;5.63;5.05;;;;;;;3.52;92.08;99419.91;1977258;82;20695;-76
2021/12/11 11:42:19;;;;;;;5.57;4.96;;;;;;;3.55;91.88;99420.84;1970893;82;21044;-76
2021/12/11 11:47:09;;;;;;;5.61;4.94;;;;;;;3.60;91.84;99423.56;1960180;71;1772063;-76
2021/12/11 11:50:51;;;;;;;5.94;4.00;;;;;;;3.64;91.74;99424.31;1984385;81;20445;-76
2021/12/11 11:54:25;;;;;;;5.34;4.39;;;;;;;3.69;91.83;99428.09;1976348;81;20777;-76
2021/12/11 11:57:52;;;;;;;5.47;4.78;;;;;;;3.71;91.68;99434.06;1981949;81;20401;-76
2021/12/11 12:01:52;;;;;;;6.47;4.95;;;;;;;3.73;91.85;99436.16;1963842;81;997172;-76
2021/12/11 12:05:10;;;;;;;5.56;4.45;;;;;;;3.74;92.12;99441.81;1980534;81;20352;-75
2021/12/11 12:09:15;;;;;;;7.38;5.10;;;;;;;3.76;92.30;99445.31;1979938;81;20380;-77
2021/12/11 12:13:07;;;;;;;6.25;4.74;;;;;;;3.78;92.36;99447.66;1980266;81;21348;-76
2021/12/11 12:16:13;;;;;;;6.89;5.09;;;;;;;3.81;92.49;99451.97;1978823;81;20739;-75
2021/12/11 12:19:23;;;;;;;5.29;4.79;;;;;;;3.84;92.64;99455.69;1980986;81;20364;-76
2021/12/11 12:22:29;;;;;;;4.94;4.38;;;;;;;3.85;92.58;99458.59;1978703;81;20333;-76
2021/12/11 12:25:32;;;;;;;5.50;4.26;;;;;;;3.87;92.73;99465.00;1981031;81;20328;-75
2021/12/11 12:28:36;;;;;;;6.64;5.19;;;;;;;3.88;92.91;99470.44;1980036;81;20373;-76
2021/12/11 12:32:01;;;;;;;5.66;4.90;;;;;;;3.89;93.10;99475.47;1980414;80;24536;-76
2021/12/11 12:35:22;;;;;;;7.68;4.81;;;;;;;3.90;93.17;99479.94;1979907;81;20443;-76
2021/12/11 12:38:48;;;;;;;5.75;4.44;;;;;;;3.91;93.10;99483.78;1981066;81;20412;-76
2021/12/11 12:42:15;;;;;;;8.77;6.16;;;;;;;3.92;93.22;99487.09;1981558;81;20369;-75
2021/12/11 12:45:26;;;;;;;6.21;4.69;;;;;;;3.93;93.42;99489.75;1978681;82;20349;-75
2021/12/11 12:48:29;;;;;;;7.74;5.04;;;;;;;3.95;93.50;99492.88;1983098;81;20858;-78
2021/12/11 12:51:33;;;;;;;6.59;4.57;;;;;;;3.96;93.34;99496.00;1981908;81;20412;-76
2021/12/11 12:54:36;;;;;;;6.14;5.04;;;;;;;3.98;93.48;99500.31;1982950;82;20410;-76
2021/12/11 12:57:43;;;;;;;7.46;4.82;;;;;;;3.99;93.34;99503.47;1980980;82;20826;-77
2021/12/11 13:00:59;;;;;;;7.59;4.57;;;;;;;4.01;93.39;99507.72;1981008;79;22624;-77
2021/12/11 13:04:06;;;;;;;8.19;5.29;;;;;;;4.02;93.33;99513.22;1981864;82;20374;-76
2021/12/11 13:07:13;;;;;;;8.61;5.01;;;;;;;4.04;93.34;99517.03;1981842;82;20358;-76
2021/12/11 13:10:22;;;;;;;7.22;4.96;;;;;;;4.05;93.37;99519.66;1981613;82;20530;-76
2021/12/11 13:13:27;;;;;;;7.96;5.50;;;;;;;4.08;93.43;99521.63;1981398;82;20333;-76
2021/12/11 13:16:34;;;;;;;8.34;5.03;;;;;;;4.10;93.43;99524.28;1980849;79;23968;-76
2021/12/11 13:19:41;;;;;;;7.66;5.51;;;;;;;4.12;93.64;99528.00;1981574;82;20398;-76
2021/12/11 13:22:46;;;;;;;8.44;4.85;;;;;;;4.17;93.92;99532.78;1981352;82;20313;-77
2021/12/11 13:25:53;;;;;;;7.05;5.07;;;;;;;4.21;93.74;99537.06;1982128;82;20365;-76
2021/12/11 13:28:59;;;;;;;8.94;5.57;;;;;;;4.26;93.61;99539.56;1981844;82;20372;-76
2021/12/11 13:32:08;;;;;;;8.04;5.06;;;;;;;4.31;93.57;99543.78;1981633;79;23487;-77
2021/12/11 13:35:21;;;;;;;9.57;5.81;;;;;;;4.36;93.47;99547.41;1982768;82;20388;-76
2021/12/11 13:38:26;;;;;;;9.32;5.28;;;;;;;4.42;93.33;99550.16;1982659;82;20769;-76
2021/12/11 13:41:34;;;;;;;10.04;5.29;;;;;;;4.47;93.30;99553.41;1983028;82;20325;-76
2021/12/11 13:44:50;;;;;;;9.02;5.75;;;;;;;4.54;93.18;99557.97;1983621;82;20396;-77
2021/12/11 13:47:54;;;;;;;8.76;5.41;;;;;;;4.59;92.86;99561.50;1981523;79;22925;-77
2021/12/11 13:51:07;;;;;;;8.10;5.59;;;;;;;4.63;92.60;99564.34;1983857;82;20332;-76
2021/12/11 13:54:11;;;;;;;6.39;4.82;;;;;;;4.67;92.49;99567.41;1982918;82;20885;-77
2021/12/11 13:57:23;;;;;;;8.74;5.15;;;;;;;4.70;92.54;99571.78;1982158;82;20359;-76
2021/12/11 14:00:34;;;;;;;8.57;5.49;;;;;;;4.72;92.11;99574.25;1979555;80;25474;-76
2021/12/11 14:03:44;;;;;;;5.22;4.40;;;;;;;4.74;92.00;99577.28;1983796;82;20390;-76
2021/12/11 14:06:59;;;;;;;6.90;4.81;;;;;;;4.75;91.84;99580.25;1983156;82;20943;-77
2021/12/11 14:10:18;;;;;;;5.96;3.89;;;;;;;4.75;91.94;99583.41;1983597;81;20388;-77
2021/12/11 14:14:22;;;;;;;6.41;3.96;;;;;;;4.74;92.08;99589.78;1983487;81;20349;-76
2021/12/11 14:18:34;;;;;;;5.00;3.67;;;;;;;4.74;91.73;99595.03;1970406;81;20342;-77
2021/12/11 14:22:05;;;;;;;5.60;3.80;;;;;;;4.74;91.27;99599.53;1960410;82;20348;-76
2021/12/11 14:25:12;;;;;;;4.50;3.47;;;;;;;4.74;91.11;99605.06;1982258;81;20329;-76
2021/12/11 14:28:18;;;;;;;7.75;3.50;;;;;;;4.75;91.46;99610.94;1978895;81;20352;-76
2021/12/11 14:31:24;;;;;;;5.75;3.55;;;;;;;4.75;91.55;99617.06;1980021;79;23736;-76
2021/12/11 14:34:26;;;;;;;6.79;3.53;;;;;;;4.76;91.38;99624.28;1981883;81;21581;-76
2021/12/11 14:37:29;;;;;;;5.97;3.25;;;;;;;4.77;91.30;99630.88;1981094;82;20399;-76
2021/12/11 14:40:37;;;;;;;5.25;3.01;;;;;;;4.77;91.19;99636.78;1979954;81;21418;-76
2021/12/11 14:43:40;;;;;;;7.70;3.44;;;;;;;4.76;90.84;99640.56;1983269;81;20400;-76
2021/12/11 14:46:44;;;;;;;9.45;3.15;;;;;;;4.73;90.79;99644.63;1980291;79;23187;-76
2021/12/11 14:49:52;;;;;;;5.95;3.00;;;;;;;4.70;90.97;99647.66;1981565;81;21090;-76
2021/12/11 14:52:56;;;;;;;6.95;3.01;;;;;;;4.67;90.91;99650.41;1981897;81;20325;-76
2021/12/11 14:56:02;;;;;;;3.89;2.83;;;;;;;4.64;90.80;99654.03;1981080;81;20311;-76
2021/12/11 14:59:11;;;;;;;7.96;2.92;;;;;;;4.61;91.11;99658.97;1977958;81;20328;-76
2021/12/11 15:02:18;;;;;;;7.73;3.80;;;;;;;4.58;91.31;99661.72;1980113;79;22313;-76
2021/12/11 15:05:29;;;;;;;5.14;2.44;;;;;;;4.53;91.39;99664.13;1981427;81;20204;-76
2021/12/11 15:08:32;;;;;;;6.19;2.09;;;;;;;4.49;91.36;99664.97;1981221;81;20360;-76
2021/12/11 15:11:38;;;;;;;4.64;2.16;;;;;;;4.44;91.54;99668.00;1981146;81;20384;-76
2021/12/11 15:14:44;;;;;;;4.49;2.20;;;;;;;4.37;91.81;99671.84;1981251;81;20332;-76
2021/12/11 15:17:47;;;;;;;3.51;2.11;;;;;;;4.30;91.85;99675.09;1979580;79;23909;-76
2021/12/11 15:20:57;;;;;;;4.44;2.35;;;;;;;4.21;91.78;99678.66;1981018;81;20392;-76
2021/12/11 15:24:02;;;;;;;4.49;1.96;;;;;;;4.12;91.82;99683.25;1980042;81;20333;-76
2021/12/11 15:27:07;;;;;;;5.40;2.17;;;;;;;4.02;91.99;99690.00;1976502;81;20471;-76
2021/12/11 15:30:18;;;;;;;4.59;2.33;;;;;;;3.91;91.98;99694.06;1977915;82;20329;-76
2021/12/11 15:33:20;;;;;;;4.26;2.20;;;;;;;3.80;92.19;99699.69;1980171;81;20337;-76
2021/12/11 15:36:28;;;;;;;5.16;2.10;;;;;;;3.68;92.15;99702.75;1983893;81;20388;-75
2021/12/11 15:39:37;;;;;;;3.69;2.22;;;;;;;3.57;92.33;99708.84;1982656;82;20415;-76
2021/12/11 15:42:41;;;;;;;4.05;2.21;;;;;;;3.46;92.56;99714.75;1979810;81;21461;-76
2021/12/11 15:45:50;;;;;;;3.61;1.76;;;;;;;3.35;92.62;99722.50;1978230;79;24930;-75
2021/12/11 15:48:53;;;;;;;;;;;;;;;3.23;92.50;99729.44;1981330;82;20392;-75
2021/12/11 15:51:56;;;;;;;5.32;2.06;;;;;;;3.10;92.73;99735.22;1980943;82;20151;-76
2021/12/11 15:54:59;;;;;;;3.59;1.98;;;;;;;2.99;92.94;99742.19;1981552;81;20424;-75
2021/12/11 15:58:03;;;;;;;3.64;1.60;;;;;;;2.88;93.02;99746.88;1981441;82;20341;-76
2021/12/11 16:01:09;;;;;;;3.31;1.64;;;;;;;2.77;93.05;99751.38;1980409;79;20341;-76
2021/12/11 16:04:24;;;;;;;4.68;2.06;;;;;;;2.66;93.09;99754.59;1981386;81;20504;-75
2021/12/11 16:07:27;;;;;;;4.91;1.61;;;;;;;2.56;93.34;99761.38;1980510;81;21245;-76
2021/12/11 16:10:31;;;;;;;3.39;1.95;;;;;;;2.48;93.66;99768.28;1980369;82;20925;-76
2021/12/11 16:13:34;;;;;;;4.05;2.10;;;;;;;2.42;94.04;99774.94;1980807;81;20374;-76
2021/12/11 16:16:37;;;;;;;2.71;2.30;;;;;;;2.37;94.27;99779.59;1979976;79;21529;-75
2021/12/11 16:19:44;;;;;;;5.47;2.00;;;;;;;2.35;94.65;99784.72;1980095;82;20347;-75
2021/12/11 16:22:47;;;;;;;4.07;1.91;;;;;;;2.33;94.82;99789.38;1981527;82;20344;-76
2021/12/11 16:25:50;;;;;;;5.66;1.79;;;;;;;2.32;95.26;99792.88;1980992;82;21424;-76
2021/12/11 16:28:53;;;;;;;6.07;1.85;;;;;;;2.33;95.75;99795.81;1981236;82;20340;-75
2021/12/11 16:31:55;;;;;;;4.84;1.63;;;;;;;2.36;95.99;99799.88;1980019;79;23732;-75
2021/12/11 16:34:58;;;;;;;7.89;1.96;;;;;;;2.40;96.31;99806.03;1981463;81;20349;-76
2021/12/11 16:38:03;;;;;;;6.03;1.83;;;;;;;2.45;96.42;99811.31;1981712;82;20362;-75
2021/12/11 16:41:32;;;;;;;3.88;1.66;;;;;;;2.50;96.50;99817.47;1981436;81;20424;-76
2021/12/11 16:44:34;;;;;;;8.45;1.76;;;;;;;2.55;96.50;99824.31;1981491;81;20333;-76
2021/12/11 16:47:37;;;;;;;7.07;1.95;;;;;;;2.60;96.25;99830.38;1978873;79;25463;-76
2021/12/11 16:50:41;;;;;;;10.00;1.20;;;;;;;2.63;96.06;99836.72;1982329;82;20938;-76
2021/12/11 16:53:50;;;;;;;5.25;1.95;;;;;;;2.65;95.90;99842.66;1981589;82;20419;-76
2021/12/11 16:56:53;;;;;;;3.99;1.61;;;;;;;2.64;95.61;99847.09;1982066;82;20408;-76
2021/12/11 16:59:55;;;;;;;6.30;1.40;;;;;;;2.62;95.33;99850.81;1979999;82;20435;-76
2021/12/11 17:02:58;;;;;;;6.39;1.42;;;;;;;2.59;95.13;99855.72;1981004;80;21703;-76
2021/12/11 17:06:01;;;;;;;5.94;1.67;;;;;;;2.55;95.03;99862.38;1983045;82;20365;-76
2021/12/11 17:09:07;;;;;;;3.86;1.10;;;;;;;2.51;95.12;99864.97;1982268;82;20328;-77
2021/12/11 17:12:17;;;;;;;4.89;1.55;;;;;;;2.46;94.85;99866.25;1982610;82;20340;-76
2021/12/11 17:15:19;;;;;;;2.11;1.13;;;;;;;2.42;94.83;99869.16;1981077;82;20940;-76
2021/12/11 17:18:26;;;;;;;5.99;1.52;;;;;;;2.37;94.73;99872.72;1981547;79;26134;-76
2021/12/11 17:21:30;;;;;;;4.10;1.11;;;;;;;2.31;94.46;99874.41;1981242;82;20415;-76
2021/12/11 17:24:33;;;;;;;5.34;1.10;;;;;;;2.23;94.37;99878.41;1982380;82;21189;-76
2021/12/11 17:27:36;;;;;;;3.90;1.02;;;;;;;2.16;94.35;99883.13;1981585;82;20816;-76